createdAt,value
2023-02-22T00:02:10.912Z,7.51
2023-02-22T00:04:37.488Z,7.45
2023-02-22T00:07:03.874Z,7.38
2023-02-22T00:09:30.249Z,7.33
2023-02-22T00:11:56.656Z,7.26
2023-02-22T00:14:23.097Z,7.23
2023-02-22T00:16:49.497Z,7.19
2023-02-22T00:19:15.946Z,7.17
2023-02-22T00:21:42.363Z,7.15
2023-02-22T00:24:08.755Z,7.14
2023-02-22T00:26:35.169Z,7.12
2023-02-22T00:29:01.577Z,7.07
2023-02-22T00:31:28.090Z,7.10
2023-02-22T00:33:54.554Z,7.07
2023-02-22T00:36:20.927Z,7.08
2023-02-22T00:38:47.322Z,7.07
2023-02-22T00:41:13.734Z,7.10
2023-02-22T00:43:40.125Z,7.14
2023-02-22T00:46:06.564Z,7.25
2023-02-22T00:48:33.030Z,7.30
2023-02-22T00:50:59.427Z,7.39
2023-02-22T00:53:25.825Z,7.45
2023-02-22T00:55:52.349Z,7.37
2023-02-22T00:58:18.770Z,7.32
2023-02-22T01:00:45.171Z,7.30
2023-02-22T01:03:11.565Z,7.39
2023-02-22T01:05:38.160Z,7.28
2023-02-22T01:08:04.704Z,7.24
2023-02-22T01:10:31.123Z,7.22
2023-02-22T01:12:57.511Z,7.23
2023-02-22T01:15:23.932Z,7.20
2023-02-22T01:17:50.415Z,7.18
2023-02-22T01:20:16.826Z,7.20
2023-02-22T01:22:43.290Z,7.16
2023-02-22T01:25:09.692Z,7.11
2023-02-22T01:27:36.076Z,7.07
2023-02-22T01:30:02.479Z,6.97
2023-02-22T01:32:28.871Z,6.90
2023-02-22T01:34:55.289Z,6.85
2023-02-22T01:37:21.672Z,6.83
2023-02-22T01:39:48.044Z,6.80
2023-02-22T01:42:14.427Z,6.79
2023-02-22T01:44:40.813Z,6.75
2023-02-22T01:47:07.207Z,6.73
2023-02-22T01:49:33.614Z,6.74
2023-02-22T01:51:59.982Z,6.77
2023-02-22T01:54:26.382Z,6.72
2023-02-22T01:56:52.780Z,6.68
2023-02-22T01:59:19.158Z,6.66
2023-02-22T02:01:45.589Z,6.65
2023-02-22T02:04:12.051Z,6.62
2023-02-22T02:06:38.480Z,6.56
2023-02-22T02:09:04.882Z,6.63
2023-02-22T02:11:31.257Z,6.58
2023-02-22T02:13:57.654Z,6.53
2023-02-22T02:16:24.180Z,6.52
2023-02-22T02:18:50.591Z,6.51
2023-02-22T02:21:17.256Z,6.49
2023-02-22T02:23:43.807Z,6.48
2023-02-22T02:26:10.205Z,6.44
2023-02-22T02:28:36.587Z,6.46
2023-02-22T02:31:03.031Z,6.41
2023-02-22T02:33:29.435Z,6.36
2023-02-22T02:35:55.862Z,6.30
2023-02-22T02:38:22.300Z,6.25
2023-02-22T02:40:48.748Z,6.24
2023-02-22T02:43:15.141Z,6.21
2023-02-22T02:45:41.543Z,6.20
2023-02-22T02:48:07.963Z,6.17
2023-02-22T02:50:34.383Z,6.17
2023-02-22T02:53:00.769Z,6.18
2023-02-22T02:55:27.167Z,6.15
2023-02-22T02:57:53.610Z,6.12
2023-02-22T03:00:20.006Z,6.08
2023-02-22T03:02:46.397Z,6.07
2023-02-22T03:05:12.772Z,6.02
2023-02-22T03:07:39.266Z,6.00
2023-02-22T03:10:05.708Z,5.97
2023-02-22T03:12:32.090Z,5.98
2023-02-22T03:14:58.505Z,5.97
2023-02-22T03:17:24.897Z,5.94
2023-02-22T03:19:51.270Z,5.96
2023-02-22T03:22:17.776Z,5.95
2023-02-22T03:24:44.161Z,5.97
2023-02-22T03:27:10.544Z,5.97
2023-02-22T03:29:36.964Z,5.97
2023-02-22T03:32:03.501Z,5.95
2023-02-22T03:34:29.987Z,6.00
2023-02-22T03:36:56.395Z,5.97
2023-02-22T03:39:22.776Z,5.94
2023-02-22T03:41:49.197Z,5.92
2023-02-22T03:44:15.689Z,5.92
2023-02-22T03:46:42.153Z,5.87
2023-02-22T03:49:08.646Z,5.84
2023-02-22T03:51:35.044Z,5.80
2023-02-22T03:54:01.467Z,5.76
2023-02-22T03:56:27.870Z,5.75
2023-02-22T03:58:54.299Z,5.73
2023-02-22T04:01:20.731Z,5.75
2023-02-22T04:03:47.249Z,5.71
2023-02-22T04:06:13.668Z,5.68
2023-02-22T04:08:40.063Z,5.65
2023-02-22T04:11:06.487Z,5.64
2023-02-22T04:13:32.880Z,5.62
2023-02-22T04:15:59.374Z,5.60
2023-02-22T04:18:25.825Z,5.57
2023-02-22T04:20:52.254Z,5.56
2023-02-22T04:23:18.639Z,5.56
2023-02-22T04:25:45.053Z,5.54
2023-02-22T04:28:11.463Z,5.53
2023-02-22T04:30:37.925Z,5.52
2023-02-22T04:33:04.377Z,5.51
2023-02-22T04:35:30.796Z,5.50
2023-02-22T04:37:57.202Z,5.46
2023-02-22T04:40:23.583Z,5.41
2023-02-22T04:42:49.981Z,5.42
2023-02-22T04:45:16.403Z,5.42
2023-02-22T04:47:42.788Z,5.35
2023-02-22T04:50:09.217Z,5.41
2023-02-22T04:52:35.642Z,5.33
2023-02-22T04:55:02.067Z,5.28
2023-02-22T04:57:28.442Z,5.24
2023-02-22T04:59:54.855Z,5.21
2023-02-22T05:02:21.305Z,5.23
2023-02-22T05:04:47.789Z,5.20
2023-02-22T05:07:14.207Z,5.15
2023-02-22T05:09:40.594Z,5.14
2023-02-22T05:12:06.973Z,5.12
2023-02-22T05:14:33.374Z,5.13
2023-02-22T05:16:59.809Z,5.12
2023-02-22T05:19:26.228Z,5.06
2023-02-22T05:21:52.612Z,5.12
2023-02-22T05:24:19.028Z,5.08
2023-02-22T05:26:45.451Z,5.02
2023-02-22T05:29:11.850Z,5.01
2023-02-22T05:31:38.339Z,5.00
2023-02-22T05:34:04.790Z,5.02
2023-02-22T05:36:31.297Z,5.00
2023-02-22T05:38:57.681Z,5.01
2023-02-22T05:41:24.212Z,4.98
2023-02-22T05:43:50.619Z,5.01
2023-02-22T05:46:17.044Z,5.04
2023-02-22T05:48:43.463Z,4.98
2023-02-22T05:51:09.868Z,5.00
2023-02-22T05:53:36.269Z,5.02
2023-02-22T05:56:02.666Z,5.03
2023-02-22T05:58:29.139Z,5.07
2023-02-22T06:00:55.516Z,5.05
2023-02-22T06:03:21.932Z,5.06
2023-02-22T06:05:48.448Z,5.10
2023-02-22T06:08:14.904Z,5.11
2023-02-22T06:10:41.306Z,5.10
2023-02-22T06:13:07.725Z,5.06
2023-02-22T06:15:34.120Z,5.06
2023-02-22T06:18:00.550Z,5.05
2023-02-22T06:20:26.944Z,5.03
2023-02-22T06:22:53.343Z,5.01
2023-02-22T06:25:19.767Z,5.03
2023-02-22T06:27:46.164Z,5.00
2023-02-22T06:30:13.421Z,5.03
2023-02-22T06:32:39.939Z,5.00
2023-02-22T06:35:06.359Z,5.03
2023-02-22T06:37:32.797Z,5.09
2023-02-22T06:40:04.732Z,5.06
2023-02-22T06:42:31.665Z,5.15
2023-02-22T06:44:58.111Z,5.11
2023-02-22T06:47:24.497Z,5.12
2023-02-22T06:49:50.900Z,5.14
2023-02-22T06:52:17.340Z,5.18
2023-02-22T06:54:43.760Z,5.25
2023-02-22T06:57:10.221Z,5.29
2023-02-22T06:59:36.607Z,5.34
2023-02-22T07:02:03.079Z,5.41
2023-02-22T07:04:29.477Z,5.49
2023-02-22T07:06:55.901Z,5.53
2023-02-22T07:09:22.305Z,5.60
2023-02-22T07:11:48.706Z,5.83
2023-02-22T07:14:15.131Z,5.74
2023-02-22T07:16:41.600Z,5.80
2023-02-22T07:19:08.105Z,5.86
2023-02-22T07:21:34.510Z,5.92
2023-02-22T07:24:00.914Z,6.01
2023-02-22T07:26:27.350Z,6.08
2023-02-22T07:28:53.780Z,6.14
2023-02-22T07:31:20.248Z,6.25
2023-02-22T07:33:46.689Z,6.34
2023-02-22T07:36:13.137Z,6.35
2023-02-22T07:38:39.518Z,6.35
2023-02-22T07:41:05.911Z,6.35
2023-02-22T07:43:32.346Z,6.30
2023-02-22T07:45:58.837Z,6.39
2023-02-22T07:48:25.329Z,6.29
2023-02-22T07:50:51.751Z,6.30
2023-02-22T07:53:18.187Z,6.42
2023-02-22T07:55:44.578Z,6.46
2023-02-22T07:58:11.018Z,6.56
2023-02-22T08:00:37.471Z,6.69
2023-02-22T08:03:03.924Z,6.77
2023-02-22T08:05:30.395Z,6.93
2023-02-22T08:07:56.825Z,7.06
2023-02-22T08:10:23.281Z,7.22
2023-02-22T08:12:49.719Z,7.33
2023-02-22T08:15:16.145Z,7.49
2023-02-22T08:17:42.554Z,7.62
2023-02-22T08:20:08.988Z,7.75
2023-02-22T08:22:35.411Z,7.90
2023-02-22T08:25:01.880Z,8.01
2023-02-22T08:27:28.316Z,8.10
2023-02-22T08:29:54.747Z,8.19
2023-02-22T08:32:21.383Z,8.37
2023-02-22T08:34:47.869Z,8.52
2023-02-22T08:37:14.296Z,8.61
2023-02-22T08:39:40.707Z,8.80
2023-02-22T08:42:07.119Z,8.89
2023-02-22T08:44:33.627Z,8.94
2023-02-22T08:47:00.011Z,8.92
2023-02-22T08:49:26.402Z,9.02
2023-02-22T08:51:52.794Z,9.22
2023-02-22T08:54:19.216Z,9.16
2023-02-22T08:56:45.633Z,9.18
2023-02-22T08:59:12.186Z,9.23
2023-02-22T09:01:39.021Z,9.28
2023-02-22T09:04:05.774Z,9.35
2023-02-22T09:06:32.260Z,9.51
2023-02-22T09:08:58.676Z,9.53
2023-02-22T09:11:25.095Z,9.78
2023-02-22T09:13:51.522Z,9.80
2023-02-22T09:16:17.945Z,9.84
2023-02-22T09:18:44.730Z,10.03
2023-02-22T09:21:11.136Z,9.97
2023-02-22T09:23:37.591Z,9.95
2023-02-22T09:26:04.043Z,10.03
2023-02-22T09:28:30.453Z,10.17
2023-02-22T09:30:56.878Z,10.23
2023-02-22T09:33:23.309Z,10.32
2023-02-22T09:35:49.754Z,10.44
2023-02-22T09:38:16.170Z,10.53
2023-02-22T09:40:42.626Z,10.75
2023-02-22T09:43:09.068Z,10.82
2023-02-22T09:45:35.601Z,10.90
2023-02-22T09:48:11.708Z,11.04
2023-02-22T09:50:45.798Z,11.20
2023-02-22T09:53:12.198Z,11.31
2023-02-22T09:55:38.620Z,11.39
2023-02-22T09:58:05.102Z,11.48
2023-02-22T10:00:31.607Z,11.59
2023-02-22T10:02:58.133Z,11.64
2023-02-22T10:05:24.598Z,11.73
2023-02-22T10:07:51.039Z,11.81
2023-02-22T10:10:17.502Z,11.84
2023-02-22T10:12:43.918Z,11.90
2023-02-22T10:15:10.349Z,11.98
2023-02-22T10:17:36.759Z,12.00
2023-02-22T10:20:03.178Z,12.12
2023-02-22T10:22:29.606Z,12.17
2023-02-22T10:24:56.133Z,12.24
2023-02-22T10:27:22.563Z,12.29
2023-02-22T10:29:50.128Z,12.28
2023-02-22T10:32:17.870Z,12.35
2023-02-22T10:34:45.356Z,12.39
2023-02-22T10:37:11.803Z,12.46
2023-02-22T10:39:38.569Z,12.59
2023-02-22T10:42:06.161Z,12.63
2023-02-22T10:44:33.723Z,12.69
2023-02-22T10:47:00.151Z,12.76
2023-02-22T10:49:26.564Z,12.84
2023-02-22T10:51:53.501Z,12.96
2023-02-22T10:54:20.100Z,13.01
2023-02-22T10:56:46.687Z,13.11
2023-02-22T10:59:13.278Z,13.20
2023-02-22T11:01:39.889Z,13.28
2023-02-22T11:04:06.458Z,13.35
2023-02-22T11:06:34.069Z,13.38
2023-02-22T11:09:00.701Z,13.42
2023-02-22T11:11:27.117Z,13.46
2023-02-22T11:13:53.538Z,13.52
2023-02-22T11:16:20.042Z,13.55
2023-02-22T11:18:47.073Z,13.64
2023-02-22T11:21:14.654Z,13.67
2023-02-22T11:23:44.735Z,13.67
2023-02-22T11:26:11.420Z,13.70
2023-02-22T11:28:38.458Z,13.77
2023-02-22T11:31:05.097Z,13.83
2023-02-22T11:33:31.695Z,13.88
2023-02-22T11:35:59.238Z,13.91
2023-02-22T11:38:25.825Z,13.94
2023-02-22T11:40:53.421Z,14.02
2023-02-22T11:43:21.013Z,14.07
2023-02-22T11:45:57.780Z,14.16
2023-02-22T11:48:26.301Z,14.29
2023-02-22T11:50:52.777Z,14.42
2023-02-22T11:53:19.498Z,14.45
2023-02-22T11:55:46.088Z,14.52
2023-02-22T11:58:13.774Z,14.59
2023-02-22T12:00:41.282Z,14.61
2023-02-22T12:03:07.871Z,14.67
2023-02-22T12:05:34.305Z,14.75
2023-02-22T12:08:13.772Z,14.79
2023-02-22T12:10:45.719Z,14.94
2023-02-22T12:13:12.202Z,15.03
2023-02-22T12:15:38.694Z,15.08
2023-02-22T12:18:05.486Z,15.17
2023-02-22T12:20:33.122Z,15.22
2023-02-22T12:22:59.752Z,15.21
2023-02-22T12:25:26.588Z,15.28
2023-02-22T12:27:53.048Z,15.30
2023-02-22T12:30:19.537Z,15.30
2023-02-22T12:32:48.090Z,15.26
2023-02-22T12:35:14.713Z,15.26
2023-02-22T12:37:41.329Z,15.23
2023-02-22T12:40:08.920Z,15.19
2023-02-22T12:42:35.362Z,15.16
2023-02-22T12:45:02.131Z,15.10
2023-02-22T12:47:29.065Z,15.06
2023-02-22T12:49:57.290Z,15.03
2023-02-22T12:52:23.680Z,15.06
2023-02-22T12:54:50.125Z,15.07
2023-02-22T12:57:17.065Z,15.05
2023-02-22T12:59:43.703Z,15.12
2023-02-22T13:02:10.302Z,15.03
2023-02-22T13:04:36.938Z,14.96
2023-02-22T13:07:03.361Z,14.89
2023-02-22T13:09:29.810Z,14.86
2023-02-22T13:11:56.233Z,14.79
2023-02-22T13:14:22.705Z,14.75
2023-02-22T13:16:49.864Z,14.67
2023-02-22T13:19:16.463Z,14.61
2023-02-22T13:21:42.953Z,14.56
2023-02-22T13:24:09.433Z,14.55
2023-02-22T13:26:36.209Z,14.47
2023-02-22T13:29:02.870Z,14.44
2023-02-22T13:31:29.355Z,14.43
2023-02-22T13:33:56.022Z,14.37
2023-02-22T13:36:22.444Z,14.31
2023-02-22T13:38:49.206Z,14.27
2023-02-22T13:41:17.163Z,14.20
2023-02-22T13:43:43.781Z,14.12
2023-02-22T13:46:10.209Z,14.01
2023-02-22T13:48:37.589Z,13.90
2023-02-22T13:51:04.043Z,13.77
2023-02-22T13:53:30.464Z,13.65
2023-02-22T13:55:57.022Z,13.55
2023-02-22T13:58:23.422Z,13.43
2023-02-22T14:00:49.822Z,13.38
2023-02-22T14:03:18.251Z,13.15
2023-02-22T14:05:44.935Z,13.02
2023-02-22T14:08:11.492Z,12.90
2023-02-22T14:10:37.898Z,12.77
2023-02-22T14:13:04.340Z,12.65
2023-02-22T14:15:31.448Z,12.56
2023-02-22T14:17:58.950Z,12.46
2023-02-22T14:20:25.395Z,12.41
2023-02-22T14:22:52.334Z,12.38
2023-02-22T14:25:27.999Z,12.32
2023-02-22T14:27:55.371Z,12.28
2023-02-22T14:30:21.803Z,12.27
2023-02-22T14:32:48.759Z,12.23
2023-02-22T14:35:26.461Z,12.21
2023-02-22T14:37:55.824Z,12.19
2023-02-22T14:40:23.413Z,12.19
2023-02-22T14:42:51.186Z,12.18
2023-02-22T14:45:18.011Z,12.09
2023-02-22T14:47:45.247Z,12.05
2023-02-22T14:50:11.687Z,11.99
2023-02-22T14:52:38.502Z,11.96
2023-02-22T14:55:06.124Z,11.94
2023-02-22T14:57:34.905Z,11.90
2023-02-22T15:00:01.367Z,11.91
2023-02-22T15:02:27.846Z,11.91
2023-02-22T15:04:54.391Z,11.88
2023-02-22T15:07:20.819Z,11.83
2023-02-22T15:09:47.726Z,11.79
2023-02-22T15:12:14.394Z,11.74
2023-02-22T15:14:41.983Z,11.69
2023-02-22T15:17:08.429Z,11.65
2023-02-22T15:19:35.300Z,11.58
2023-02-22T15:22:01.732Z,11.55
2023-02-22T15:24:28.567Z,11.54
2023-02-22T15:27:02.128Z,11.52
2023-02-22T15:29:29.767Z,11.46
2023-02-22T15:31:56.251Z,11.46
2023-02-22T15:34:22.710Z,11.41
2023-02-22T15:36:49.546Z,11.37
2023-02-22T15:39:17.149Z,11.36
2023-02-22T15:41:43.989Z,11.36
2023-02-22T15:44:22.769Z,11.35
2023-02-22T15:46:51.007Z,11.35
2023-02-22T15:49:17.541Z,11.35
2023-02-22T15:51:44.199Z,11.39
2023-02-22T15:54:18.350Z,11.38
2023-02-22T15:56:52.465Z,11.38
2023-02-22T15:59:22.340Z,11.38
2023-02-22T16:01:48.833Z,11.38
2023-02-22T16:04:16.297Z,11.39
2023-02-22T16:06:43.914Z,11.44
2023-02-22T16:09:10.505Z,11.45
2023-02-22T16:11:37.401Z,11.45
2023-02-22T16:14:04.804Z,11.46
2023-02-22T16:16:32.327Z,11.44
2023-02-22T16:18:59.159Z,11.42
2023-02-22T16:21:25.578Z,11.41
2023-02-22T16:23:53.067Z,11.38
2023-02-22T16:26:19.929Z,11.37
2023-02-22T16:28:46.370Z,11.35
2023-02-22T16:31:12.861Z,11.32
2023-02-22T16:33:41.393Z,11.29
2023-02-22T16:36:09.198Z,11.26
2023-02-22T16:38:36.680Z,11.22
2023-02-22T16:41:04.289Z,11.19
2023-02-22T16:43:31.899Z,11.15
2023-02-22T16:45:59.517Z,11.11
2023-02-22T16:48:27.058Z,11.08
2023-02-22T16:50:54.657Z,11.05
2023-02-22T16:53:22.263Z,11.01
2023-02-22T16:55:49.912Z,10.98
2023-02-22T16:58:17.527Z,10.95
2023-02-22T17:00:46.126Z,10.91
2023-02-22T17:03:13.717Z,10.88
2023-02-22T17:05:42.334Z,10.84
2023-02-22T17:08:08.788Z,10.81
2023-02-22T17:10:36.477Z,10.80
2023-02-22T17:13:16.395Z,10.78
2023-02-22T17:15:48.803Z,10.80
2023-02-22T17:18:16.436Z,10.75
2023-02-22T17:20:43.975Z,10.72
2023-02-22T17:23:11.561Z,10.69
2023-02-22T17:25:39.155Z,10.63
2023-02-22T17:28:07.752Z,10.60
2023-02-22T17:30:35.390Z,10.58
2023-02-22T17:33:02.956Z,10.55
2023-02-22T17:35:30.544Z,10.54
2023-02-22T17:37:58.128Z,10.53
2023-02-22T17:40:24.727Z,10.54
2023-02-22T17:42:51.314Z,10.50
2023-02-22T17:45:18.906Z,10.48
2023-02-22T17:47:45.503Z,10.46
2023-02-22T17:50:12.112Z,10.49
2023-02-22T17:52:39.691Z,10.43
2023-02-22T17:55:06.263Z,10.42
2023-02-22T17:57:33.863Z,10.41
2023-02-22T18:00:00.460Z,10.42
2023-02-22T18:02:27.120Z,10.42
2023-02-22T18:04:53.969Z,10.39
2023-02-22T18:07:20.376Z,10.37
2023-02-22T18:09:46.920Z,10.37
2023-02-22T18:12:13.356Z,10.38
2023-02-22T18:14:39.791Z,10.38
2023-02-22T18:17:06.790Z,10.33
2023-02-22T18:19:33.317Z,10.33
2023-02-22T18:21:59.714Z,10.30
2023-02-22T18:24:26.137Z,10.26
2023-02-22T18:26:52.997Z,10.26
2023-02-22T18:29:20.582Z,10.27
2023-02-22T18:31:48.167Z,10.30
2023-02-22T18:34:15.811Z,10.30
2023-02-22T18:36:43.390Z,10.37
2023-02-22T18:39:09.973Z,10.26
2023-02-22T18:41:38.594Z,10.24
2023-02-22T18:44:06.175Z,10.23
2023-02-22T18:46:32.785Z,10.24
2023-02-22T18:48:59.374Z,10.22
2023-02-22T18:51:27.933Z,10.21
2023-02-22T18:53:55.557Z,10.18
2023-02-22T18:56:22.394Z,10.15
2023-02-22T18:58:48.923Z,10.13
2023-02-22T19:01:15.336Z,10.13
2023-02-22T19:03:42.156Z,10.12
2023-02-22T19:06:09.522Z,10.13
2023-02-22T19:08:37.138Z,10.16
2023-02-22T19:11:06.912Z,10.07
2023-02-22T19:13:34.701Z,10.07
2023-02-22T19:16:02.031Z,10.03
2023-02-22T19:18:28.495Z,10.02
2023-02-22T19:20:55.147Z,10.02
2023-02-22T19:23:22.740Z,10.01
2023-02-22T19:25:49.333Z,10.03
2023-02-22T19:28:15.772Z,10.03
2023-02-22T19:30:42.557Z,10.01
2023-02-22T19:33:09.014Z,9.99
2023-02-22T19:35:35.683Z,9.98
2023-02-22T19:38:02.265Z,9.97
2023-02-22T19:40:29.864Z,9.93
2023-02-22T19:42:56.575Z,9.91
2023-02-22T19:45:24.073Z,9.79
2023-02-22T19:47:51.655Z,9.73
2023-02-22T19:50:19.265Z,9.72
2023-02-22T19:52:45.872Z,9.74
2023-02-22T19:55:12.294Z,9.75
2023-02-22T19:57:39.048Z,9.82
2023-02-22T20:00:05.657Z,9.78
2023-02-22T20:02:33.367Z,9.70
2023-02-22T20:05:00.817Z,9.68
2023-02-22T20:07:27.228Z,9.68
2023-02-22T20:09:54.065Z,9.68
2023-02-22T20:12:20.502Z,9.68
2023-02-22T20:14:48.275Z,9.67
2023-02-22T20:17:15.862Z,9.66
2023-02-22T20:19:43.451Z,9.66
2023-02-22T20:22:10.057Z,9.69
2023-02-22T20:24:37.675Z,9.58
2023-02-22T20:27:05.285Z,9.56
2023-02-22T20:29:32.929Z,9.53
2023-02-22T20:32:00.628Z,9.50
2023-02-22T20:34:28.091Z,9.47
2023-02-22T20:36:54.665Z,9.44
2023-02-22T20:39:21.384Z,9.43
2023-02-22T20:41:48.129Z,9.43
2023-02-22T20:44:15.439Z,9.37
2023-02-22T20:46:43.084Z,9.33
2023-02-22T20:49:10.636Z,9.30
2023-02-22T20:51:37.237Z,9.29
2023-02-22T20:54:03.846Z,9.39
2023-02-22T20:56:30.418Z,9.25
2023-02-22T20:58:58.032Z,9.24
2023-02-22T21:01:25.674Z,9.34
2023-02-22T21:03:54.224Z,9.37
2023-02-22T21:06:21.064Z,9.22
2023-02-22T21:08:49.426Z,9.30
2023-02-22T21:11:18.483Z,9.14
2023-02-22T21:13:46.602Z,9.10
2023-02-22T21:16:15.216Z,9.10
2023-02-22T21:18:44.191Z,9.11
2023-02-22T21:21:12.441Z,9.14
2023-02-22T21:23:40.032Z,9.18
2023-02-22T21:26:07.587Z,9.19
2023-02-22T21:28:50.557Z,9.20
2023-02-22T21:31:19.410Z,9.19
2023-02-22T21:33:47.504Z,9.17
2023-02-22T21:36:16.463Z,9.20
2023-02-22T21:38:44.705Z,9.17
2023-02-22T21:41:12.370Z,9.18
2023-02-22T21:43:39.886Z,9.17
2023-02-22T21:46:08.511Z,9.21
2023-02-22T21:48:37.660Z,9.22
2023-02-22T21:51:05.670Z,9.24
2023-02-22T21:53:34.405Z,9.25
2023-02-22T21:56:03.348Z,9.27
2023-02-22T21:58:31.640Z,9.27
2023-02-22T22:01:00.709Z,9.28
2023-02-22T22:03:28.718Z,9.29
2023-02-22T22:05:57.306Z,9.30
2023-02-22T22:08:26.174Z,9.34
2023-02-22T22:10:53.503Z,9.29
2023-02-22T22:13:22.103Z,9.28
2023-02-22T22:15:50.749Z,9.31
2023-02-22T22:18:18.296Z,9.37
2023-02-22T22:20:47.114Z,9.40
2023-02-22T22:23:15.505Z,9.43
2023-02-22T22:25:44.092Z,9.49
2023-02-22T22:28:12.716Z,9.36
2023-02-22T22:30:41.937Z,9.28
2023-02-22T22:33:11.288Z,9.27
2023-02-22T22:35:38.477Z,9.24
2023-02-22T22:38:07.093Z,9.25
2023-02-22T22:40:36.188Z,9.24
2023-02-22T22:43:03.264Z,9.25
2023-02-22T22:45:31.873Z,9.26
2023-02-22T22:47:59.497Z,9.25
2023-02-22T22:50:27.037Z,9.28
2023-02-22T22:52:57.170Z,9.20
2023-02-22T22:55:24.324Z,9.20
2023-02-22T22:57:51.823Z,9.23
2023-02-22T23:00:20.433Z,9.15
2023-02-22T23:02:49.131Z,9.15
2023-02-22T23:05:18.549Z,9.15
2023-02-22T23:07:45.460Z,9.17
2023-02-22T23:10:13.312Z,9.11
2023-02-22T23:12:41.891Z,9.09
2023-02-22T23:15:11.172Z,9.08
2023-02-22T23:17:38.163Z,9.06
2023-02-22T23:20:05.736Z,9.06
2023-02-22T23:22:32.517Z,9.04
2023-02-22T23:25:01.474Z,9.04
2023-02-22T23:27:29.535Z,9.01
2023-02-22T23:29:58.142Z,9.03
2023-02-22T23:32:24.730Z,9.01
2023-02-22T23:34:51.528Z,8.87
2023-02-22T23:37:20.545Z,8.87
2023-02-22T23:39:47.714Z,8.82
2023-02-22T23:42:14.322Z,8.83
2023-02-22T23:44:40.780Z,8.89
2023-02-22T23:47:08.598Z,8.85
2023-02-22T23:49:36.181Z,8.79
2023-02-22T23:52:03.742Z,8.79
2023-02-22T23:54:31.343Z,8.79
2023-02-22T23:56:58.920Z,8.80
2023-02-22T23:59:26.553Z,8.79
